sensor_id;sensor_type;location;lat;lon;timestamp;temperature;humidity
10386;DHT22;34307;51.332;12.334;2024-03-08T05:32:21;0.40;99.90
10386;DHT22;34307;51.332;12.334;2024-03-08T05:34:49;0.40;99.90
10386;DHT22;34307;51.332;12.334;2024-03-08T05:37:18;0.50;99.90
10386;DHT22;34307;51.332;12.334;2024-03-08T05:39:47;0.50;99.90
10386;DHT22;34307;51.332;12.334;2024-03-08T05:42:14;0.50;99.90
10386;DHT22;34307;51.332;12.334;2024-03-08T05:44:43;0.60;99.90
10386;DHT22;34307;51.332;12.334;2024-03-08T05:47:11;0.70;99.90
10386;DHT22;34307;51.332;12.334;2024-03-08T05:49:40;0.70;99.90
10386;DHT22;34307;51.332;12.334;2024-03-08T05:52:08;0.80;99.90
10386;DHT22;34307;51.332;12.334;2024-03-08T12:36:19;23.50;1.00
10386;DHT22;34307;51.332;12.334;2024-03-08T12:38:48;23.90;1.00
10386;DHT22;34307;51.332;12.334;2024-03-08T12:41:17;24.20;1.00
10386;DHT22;34307;51.332;12.334;2024-03-08T12:43:46;24.20;1.00
10386;DHT22;34307;51.332;12.334;2024-03-08T12:46:17;24.40;1.00
10386;DHT22;34307;51.332;12.334;2024-03-08T12:48:47;24.20;1.00
10386;DHT22;34307;51.332;12.334;2024-03-08T12:51:18;24.50;1.00
10386;DHT22;34307;51.332;12.334;2024-03-08T12:53:47;25.00;1.00
10386;DHT22;34307;51.332;12.334;2024-03-08T12:56:29;24.50;1.00
10386;DHT22;34307;51.332;12.334;2024-03-08T12:58:57;25.10;1.00
10386;DHT22;34307;51.332;12.334;2024-03-08T13:01:26;25.40;1.00
10386;DHT22;34307;51.332;12.334;2024-03-08T13:03:55;24.80;1.00
10386;DHT22;34307;51.332;12.334;2024-03-08T13:06:26;25.60;1.00
10386;DHT22;34307;51.332;12.334;2024-03-08T13:08:56;25.70;1.00
10386;DHT22;34307;51.332;12.334;2024-03-08T13:11:25;26.10;1.00
10386;DHT22;34307;51.332;12.334;2024-03-08T13:13:54;26.50;1.00
10386;DHT22;34307;51.332;12.334;2024-03-08T13:16:22;26.70;1.00
10386;DHT22;34307;51.332;12.334;2024-03-08T13:18:50;26.90;1.00
10386;DHT22;34307;51.332;12.334;2024-03-08T13:21:20;26.90;1.00
10386;DHT22;34307;51.332;12.334;2024-03-08T13:23:52;26.90;1.00
10386;DHT22;34307;51.332;12.334;2024-03-08T13:26:22;27.60;1.00
10386;DHT22;34307;51.332;12.334;2024-03-08T13:28:52;26.20;1.00
10386;DHT22;34307;51.332;12.334;2024-03-08T13:31:21;25.60;1.00
10386;DHT22;34307;51.332;12.334;2024-03-08T13:33:49;25.80;1.00
10386;DHT22;34307;51.332;12.334;2024-03-08T13:36:18;24.80;1.00
10386;DHT22;34307;51.332;12.334;2024-03-08T13:38:48;25.80;1.00
10386;DHT22;34307;51.332;12.334;2024-03-08T13:41:18;26.40;1.00
10386;DHT22;34307;51.332;12.334;2024-03-08T13:43:49;26.50;1.00
10386;DHT22;34307;51.332;12.334;2024-03-08T13:46:18;25.50;1.00
10386;DHT22;34307;51.332;12.334;2024-03-08T13:48:47;25.50;1.00
10386;DHT22;34307;51.332;12.334;2024-03-08T13:51:17;26.00;1.00
10386;DHT22;34307;51.332;12.334;2024-03-08T13:53:46;26.40;1.00
10386;DHT22;34307;51.332;12.334;2024-03-08T13:56:14;25.80;1.00
10386;DHT22;34307;51.332;12.334;2024-03-08T13:58:44;25.60;1.00
10386;DHT22;34307;51.332;12.334;2024-03-08T14:01:18;25.20;1.00
10386;DHT22;34307;51.332;12.334;2024-03-08T14:03:47;24.90;1.00
10386;DHT22;34307;51.332;12.334;2024-03-08T14:06:16;24.10;1.00
10386;DHT22;34307;51.332;12.334;2024-03-08T14:08:50;24.50;1.00
10386;DHT22;34307;51.332;12.334;2024-03-08T14:11:20;24.50;1.00
10386;DHT22;34307;51.332;12.334;2024-03-08T14:13:54;24.30;1.00
10386;DHT22;34307;51.332;12.334;2024-03-08T14:16:23;24.50;1.00
10386;DHT22;34307;51.332;12.334;2024-03-08T14:18:51;24.80;1.00
10386;DHT22;34307;51.332;12.334;2024-03-08T14:21:19;24.50;1.00
10386;DHT22;34307;51.332;12.334;2024-03-08T14:23:48;23.70;1.00
10386;DHT22;34307;51.332;12.334;2024-03-08T14:26:20;24.00;1.00
10386;DHT22;34307;51.332;12.334;2024-03-08T14:28:52;25.10;1.00
10386;DHT22;34307;51.332;12.334;2024-03-08T14:31:21;24.90;1.00
10386;DHT22;34307;51.332;12.334;2024-03-08T14:33:52;24.10;1.00
10386;DHT22;34307;51.332;12.334;2024-03-08T14:36:21;24.40;1.00
10386;DHT22;34307;51.332;12.334;2024-03-08T14:38:52;23.30;1.00
10386;DHT22;34307;51.332;12.334;2024-03-08T14:41:20;22.60;1.00
10386;DHT22;34307;51.332;12.334;2024-03-08T14:43:53;22.00;1.00
10386;DHT22;34307;51.332;12.334;2024-03-08T14:46:21;22.10;1.00
10386;DHT22;34307;51.332;12.334;2024-03-08T14:48:50;22.00;1.00
10386;DHT22;34307;51.332;12.334;2024-03-08T14:51:19;22.00;1.00
10386;DHT22;34307;51.332;12.334;2024-03-08T14:53:49;22.00;1.00
10386;DHT22;34307;51.332;12.334;2024-03-08T14:56:17;22.30;1.00
10386;DHT22;34307;51.332;12.334;2024-03-08T14:58:45;21.80;1.00
10386;DHT22;34307;51.332;12.334;2024-03-08T15:01:20;22.20;1.00
10386;DHT22;34307;51.332;12.334;2024-03-08T15:03:49;21.10;1.00
10386;DHT22;34307;51.332;12.334;2024-03-08T15:06:17;21.00;1.00
10386;DHT22;34307;51.332;12.334;2024-03-08T15:08:47;21.60;1.00
10386;DHT22;34307;51.332;12.334;2024-03-08T15:11:15;21.70;1.00
10386;DHT22;34307;51.332;12.334;2024-03-08T15:13:51;21.60;1.00
10386;DHT22;34307;51.332;12.334;2024-03-08T15:16:24;20.60;1.00
10386;DHT22;34307;51.332;12.334;2024-03-08T15:18:53;20.40;1.00
10386;DHT22;34307;51.332;12.334;2024-03-08T15:21:21;20.60;1.00
10386;DHT22;34307;51.332;12.334;2024-03-08T15:23:53;20.30;1.00
10386;DHT22;34307;51.332;12.334;2024-03-08T15:26:21;19.80;1.00
10386;DHT22;34307;51.332;12.334;2024-03-08T15:28:52;19.60;1.00
10386;DHT22;34307;51.332;12.334;2024-03-08T15:31:24;19.20;1.00
10386;DHT22;34307;51.332;12.334;2024-03-08T15:33:53;19.30;1.00
10386;DHT22;34307;51.332;12.334;2024-03-08T15:36:29;18.90;1.00
10386;DHT22;34307;51.332;12.334;2024-03-08T15:39:00;17.80;1.00
10386;DHT22;34307;51.332;12.334;2024-03-08T15:41:30;17.80;1.00
10386;DHT22;34307;51.332;12.334;2024-03-08T15:43:59;17.80;1.00
10386;DHT22;34307;51.332;12.334;2024-03-08T15:46:28;17.80;1.00
10386;DHT22;34307;51.332;12.334;2024-03-08T15:48:56;17.40;1.00
10386;DHT22;34307;51.332;12.334;2024-03-08T15:51:25;17.40;1.00
10386;DHT22;34307;51.332;12.334;2024-03-08T15:53:54;17.30;1.00
10386;DHT22;34307;51.332;12.334;2024-03-08T15:56:23;17.00;1.00
10386;DHT22;34307;51.332;12.334;2024-03-08T15:58:52;16.80;1.00
10386;DHT22;34307;51.332;12.334;2024-03-08T16:01:21;16.50;1.00
10386;DHT22;34307;51.332;12.334;2024-03-08T16:03:53;15.60;1.00
10386;DHT22;34307;51.332;12.334;2024-03-08T16:06:29;14.90;1.00
10386;DHT22;34307;51.332;12.334;2024-03-08T16:08:57;14.30;1.00
10386;DHT22;34307;51.332;12.334;2024-03-08T16:11:27;14.00;1.00
10386;DHT22;34307;51.332;12.334;2024-03-08T16:13:56;13.60;1.00
10386;DHT22;34307;51.332;12.334;2024-03-08T16:16:25;13.10;1.00
10386;DHT22;34307;51.332;12.334;2024-03-08T16:18:54;12.90;1.00
10386;DHT22;34307;51.332;12.334;2024-03-08T16:21:25;12.60;1.00
10386;DHT22;34307;51.332;12.334;2024-03-08T16:23:53;12.30;1.00
10386;DHT22;34307;51.332;12.334;2024-03-08T16:26:21;12.10;1.00
10386;DHT22;34307;51.332;12.334;2024-03-08T16:28:51;11.90;1.00
10386;DHT22;34307;51.332;12.334;2024-03-08T16:31:20;11.60;1.00
10386;DHT22;34307;51.332;12.334;2024-03-08T16:33:48;11.40;1.00
10386;DHT22;34307;51.332;12.334;2024-03-08T16:36:17;11.30;1.00
10386;DHT22;34307;51.332;12.334;2024-03-08T16:38:45;11.20;1.00
10386;DHT22;34307;51.332;12.334;2024-03-08T16:41:15;11.00;1.00
10386;DHT22;34307;51.332;12.334;2024-03-08T16:43:46;10.80;1.00
10386;DHT22;34307;51.332;12.334;2024-03-08T16:46:16;10.60;1.00
10386;DHT22;34307;51.332;12.334;2024-03-08T16:48:44;10.50;1.00
10386;DHT22;34307;51.332;12.334;2024-03-08T16:51:12;10.30;1.00
10386;DHT22;34307;51.332;12.334;2024-03-08T16:53:42;10.20;1.00
10386;DHT22;34307;51.332;12.334;2024-03-08T16:56:10;10.00;1.00
10386;DHT22;34307;51.332;12.334;2024-03-08T16:58:40;9.80;1.00
10386;DHT22;34307;51.332;12.334;2024-03-08T17:01:10;9.70;1.00
10386;DHT22;34307;51.332;12.334;2024-03-08T17:03:39;9.50;1.00
10386;DHT22;34307;51.332;12.334;2024-03-08T17:06:22;9.40;1.90
10386;DHT22;34307;51.332;12.334;2024-03-08T17:08:51;9.30;5.50
10386;DHT22;34307;51.332;12.334;2024-03-08T17:11:20;9.40;8.20
10386;DHT22;34307;51.332;12.334;2024-03-08T17:13:49;9.20;9.30
10386;DHT22;34307;51.332;12.334;2024-03-08T17:16:17;9.10;12.60
10386;DHT22;34307;51.332;12.334;2024-03-08T17:18:50;9.00;14.30
10386;DHT22;34307;51.332;12.334;2024-03-08T17:21:19;8.90;16.60
10386;DHT22;34307;51.332;12.334;2024-03-08T17:23:46;8.80;18.80
10386;DHT22;34307;51.332;12.334;2024-03-08T17:26:16;8.70;20.70
10386;DHT22;34307;51.332;12.334;2024-03-08T17:28:45;8.70;22.80
10386;DHT22;34307;51.332;12.334;2024-03-08T17:31:14;8.70;24.20
10386;DHT22;34307;51.332;12.334;2024-03-08T17:33:42;8.60;25.10
10386;DHT22;34307;51.332;12.334;2024-03-08T17:36:12;8.40;26.50
10386;DHT22;34307;51.332;12.334;2024-03-08T17:38:43;8.40;27.70
10386;DHT22;34307;51.332;12.334;2024-03-08T17:41:17;8.30;29.30
10386;DHT22;34307;51.332;12.334;2024-03-08T17:43:50;8.20;30.40
10386;DHT22;34307;51.332;12.334;2024-03-08T17:46:19;8.10;32.20
10386;DHT22;34307;51.332;12.334;2024-03-08T17:48:47;8.10;32.60
10386;DHT22;34307;51.332;12.334;2024-03-08T17:51:15;8.10;33.90
10386;DHT22;34307;51.332;12.334;2024-03-08T17:53:44;8.10;34.60
10386;DHT22;34307;51.332;12.334;2024-03-08T17:56:13;8.00;35.30
10386;DHT22;34307;51.332;12.334;2024-03-08T17:58:43;7.90;36.30
10386;DHT22;34307;51.332;12.334;2024-03-08T18:01:11;7.90;37.00
10386;DHT22;34307;51.332;12.334;2024-03-08T18:03:40;7.90;38.10
10386;DHT22;34307;51.332;12.334;2024-03-08T18:06:08;7.80;38.50
10386;DHT22;34307;51.332;12.334;2024-03-08T18:08:37;7.70;39.40
10386;DHT22;34307;51.332;12.334;2024-03-08T18:11:05;7.70;40.60
10386;DHT22;34307;51.332;12.334;2024-03-08T18:13:35;7.70;41.00
10386;DHT22;34307;51.332;12.334;2024-03-08T18:16:06;7.70;41.60
10386;DHT22;34307;51.332;12.334;2024-03-08T18:18:34;7.60;42.40
10386;DHT22;34307;51.332;12.334;2024-03-08T18:21:04;7.50;43.40
10386;DHT22;34307;51.332;12.334;2024-03-08T18:23:33;7.50;44.00
10386;DHT22;34307;51.332;12.334;2024-03-08T18:26:02;7.40;44.90
10386;DHT22;34307;51.332;12.334;2024-03-08T18:28:30;7.40;45.20
10386;DHT22;34307;51.332;12.334;2024-03-08T18:30:58;7.40;46.10
10386;DHT22;34307;51.332;12.334;2024-03-08T18:33:31;7.40;46.70
10386;DHT22;34307;51.332;12.334;2024-03-08T18:35:59;7.30;47.40
10386;DHT22;34307;51.332;12.334;2024-03-08T18:38:28;7.20;48.30
10386;DHT22;34307;51.332;12.334;2024-03-08T18:40:56;7.10;49.20
10386;DHT22;34307;51.332;12.334;2024-03-08T18:43:28;7.10;50.10
10386;DHT22;34307;51.332;12.334;2024-03-08T18:45:56;7.10;50.90
10386;DHT22;34307;51.332;12.334;2024-03-08T18:48:25;7.00;51.70
10386;DHT22;34307;51.332;12.334;2024-03-08T18:50:56;7.00;52.70
10386;DHT22;34307;51.332;12.334;2024-03-08T18:53:26;7.00;52.90
10386;DHT22;34307;51.332;12.334;2024-03-08T18:55:57;7.00;53.60
10386;DHT22;34307;51.332;12.334;2024-03-08T18:58:26;6.90;54.00
10386;DHT22;34307;51.332;12.334;2024-03-08T19:01:11;6.90;54.70
10386;DHT22;34307;51.332;12.334;2024-03-08T19:03:39;6.80;55.70
10386;DHT22;34307;51.332;12.334;2024-03-08T19:06:09;6.90;56.90
10386;DHT22;34307;51.332;12.334;2024-03-08T19:08:39;7.00;56.30
10386;DHT22;34307;51.332;12.334;2024-03-08T19:11:09;6.80;56.90
10386;DHT22;34307;51.332;12.334;2024-03-08T19:13:37;6.80;57.40
10386;DHT22;34307;51.332;12.334;2024-03-08T19:16:07;6.70;58.40
10386;DHT22;34307;51.332;12.334;2024-03-08T19:18:40;6.60;59.80
10386;DHT22;34307;51.332;12.334;2024-03-08T19:21:10;6.50;61.30
10386;DHT22;34307;51.332;12.334;2024-03-08T19:23:38;6.50;62.80
10386;DHT22;34307;51.332;12.334;2024-03-08T19:26:06;6.40;64.60
